首页
METAR-TAF:

METAR-TAF

机场 :

滑铁卢, 艾奥瓦州, 美国

纬度: 42-33-16N, 经度: 092-24-04W, 海拔: 266米

当前天气观测

该预报发布于18分钟前的06:43 UTC
风速5节,风向东转东南
温度 3°C
湿度 87%
气压 1005 hPa
能見度: 4.8公里
阴天层高于1100英尺
轻雾

METAR: KALO 190643Z AUTO 12005KT 3SM BR OVC011 03/01 A2969 RMK AO2 CIG 005V012 T00280011

时间: 01:01 (07:01 UTC)

预报

该预报发布于1小时和27分钟前的05:34 UTC
预报有效从19日的 06点(UTC)到 20日的 06点(UTC)
风速5节,风向东转东南
能見度: 9.7公里
散云层高于400英尺
多云层高于1300英尺
阴天层高于6000英尺
小雨, 轻雾
从 19日的 1000点(UTC)
风速7节,风向西转西北
能見度: 10公里
多云层高于500英尺
从 19日的 1700点(UTC)
风速12节,风向西北,有时为18节阵风
能見度: 10公里
阴天层高于1500英尺
从 20日的 0100点(UTC)
风速3节,风向多变
能見度: 10公里
多云层高于3500英尺

TAF: KALO 190534Z 1906/2006 11005KT 6SM -RA BR SCT004 BKN013 OVC060 FM191000 29007KT P6SM BKN005 FM191700 31012G18KT P6SM OVC015 FM200100 VRB03KT P6SM BKN035

超过4000个机场的气象观测和天气预报(METAR&TAF报告)。

可查询的气象台以黄色和红色小点在地图上表示。

将鼠标移到小点上方,可查看气象台名称。

然后点击查看天气观测和预报。

如需切换地图:点击带黑十字的绿色按钮放大地图;点击带横线的绿色按钮缩小地图;或者点击绿色箭头查看邻近地区的地图。


METAR-TAF: